RoSS Sea — WDE3122 — position and weather

sailwx.info

Track history (hours):
 
Tides and Currents Weather Stations Pressure Air Temp Water Temp Dewpoint Dewpoint Depression Visibility Wind Speed Wind Dir Waves Ship Positions

RoSS Sea

Owner: Kirby Inland Marine, LP, Houston, TX. More information available from US FCC via Universal Licensing System and Coast Guard Vessel Documentation Center.

Last reported at 2017-Nov-20 00:29 UTC. Time now 2017-Nov-22 13:10 UTC.
Position N 39°53' W 075°10'.

Length 30 m; draft 3.8 m.

Type: Towing. MMSI: 367334360.

Date/timePositionNaut miles runAvg speedWind from/ knotsBaromVisibWave heightAir tempDewpointWater temp
2017-Nov-20 00:29N 39°53' W 075°10'0 0.1
2017-Nov-19 23:59N 39°53' W 075°10'0 0.1
2017-Nov-19 23:29N 39°53' W 075°10'0 0.0
2017-Nov-19 22:59N 39°53' W 075°10'0 0.0
2017-Nov-19 22:29N 39°53' W 075°10'0 0.1
2017-Nov-19 21:59N 39°53' W 075°10'0 0.0
2017-Nov-19 21:29N 39°53' W 075°10'0 0.0
2017-Nov-19 20:59N 39°53' W 075°10'0 0.1
2017-Nov-19 20:29N 39°53' W 075°10'0 0.0
2017-Nov-19 19:59N 39°53' W 075°10'0 0.0
2017-Nov-19 19:29N 39°53' W 075°10'0 0.0
2017-Nov-19 18:59N 39°53' W 075°10'0 0.0
2017-Nov-19 18:29N 39°53' W 075°10'0 0.0
2017-Nov-19 17:59N 39°53' W 075°10'0 0.0
2017-Nov-19 17:29N 39°53' W 075°10'0 0.0
2017-Nov-19 16:59N 39°53' W 075°10'0 0.0
2017-Nov-19 16:29N 39°53' W 075°10'0 0.0
2017-Nov-19 15:59N 39°53' W 075°10'0 0.0
2017-Nov-19 15:29N 39°53' W 075°10'0 0.0
2017-Nov-19 14:59N 39°53' W 075°10'0 0.0
2017-Nov-19 14:29N 39°53' W 075°10'0 0.0
2017-Nov-19 13:59N 39°53' W 075°10'0 0.0
2017-Nov-19 13:29N 39°53' W 075°10'0 0.0
2017-Nov-19 12:59N 39°53' W 075°10'0 0.0
2017-Nov-19 12:29N 39°53' W 075°10'0 0.1
2017-Nov-19 11:59N 39°53' W 075°10'0 0.0
2017-Nov-19 11:29N 39°53' W 075°10'0 0.1
2017-Nov-19 10:59N 39°53' W 075°10'0 0.0
2017-Nov-19 10:29N 39°53' W 075°10'0 0.0
2017-Nov-19 09:59N 39°53' W 075°10'0 0.0
2017-Nov-19 09:29N 39°53' W 075°10'0 0.0
2017-Nov-19 08:59N 39°53' W 075°10'0 0.1
2017-Nov-19 08:29N 39°53' W 075°10'0 0.0
2017-Nov-19 07:59N 39°53' W 075°10'0 0.0
2017-Nov-19 07:29N 39°53' W 075°10'0 0.0
2017-Nov-19 06:59N 39°53' W 075°10'0 0.0
2017-Nov-19 06:29N 39°53' W 075°10'0 0.0
2017-Nov-19 05:59N 39°53' W 075°10'0 0.0
2017-Nov-19 05:29N 39°53' W 075°10'0 0.0
2017-Nov-19 04:59N 39°53' W 075°10'0 0.0
2017-Nov-19 04:29N 39°53' W 075°10'0 0.0
2017-Nov-19 03:59N 39°53' W 075°10'0 0.0
2017-Nov-19 03:29N 39°53' W 075°10'0 0.0
2017-Nov-19 02:59N 39°53' W 075°10'0 0.0
2017-Nov-19 02:29N 39°53' W 075°10'0 0.1
2017-Nov-19 01:59N 39°53' W 075°10'0 0.0
2017-Nov-19 01:29N 39°53' W 075°10'0 0.1
2017-Nov-19 00:59N 39°53' W 075°10'0 0.0
2017-Nov-19 00:29N 39°53' W 075°10'0 0.0
2017-Nov-18 23:59N 39°53' W 075°10'0 0.0
2017-Nov-18 23:29N 39°53' W 075°10'0 0.0
2017-Nov-18 22:59N 39°53' W 075°10'0 0.0
2017-Nov-18 22:29N 39°53' W 075°10'0 0.0
2017-Nov-18 21:59N 39°53' W 075°10'0 0.0
2017-Nov-18 21:29N 39°53' W 075°10'0 0.1
2017-Nov-18 21:00N 39°53' W 075°10'1 1.0
2017-Nov-18 20:30N 39°53' W 075°11'3 5.4
2017-Nov-18 20:00N 39°52' W 075°14'1 2.8
2017-Nov-18 19:30N 39°51' W 075°15'4 7.5
2017-Nov-18 19:00N 39°51' W 075°20'4 8.6
2017-Nov-18 18:30N 39°48' W 075°25'4 8.6
2017-Nov-18 18:00N 39°45' W 075°29'4 8.9
2017-Nov-18 17:30N 39°41' W 075°31'4 9.0
2017-Nov-18 17:01N 39°38' W 075°35'4 8.2
2017-Nov-18 16:30N 39°34' W 075°33'3 6.6
2017-Nov-18 16:01N 39°33' W 075°37'3 6.4
2017-Nov-18 15:31N 39°33' W 075°42'4 7.1
2017-Nov-18 15:00N 39°32' W 075°46'4 7.3
2017-Nov-18 14:31N 39°32' W 075°51'4 8.2
2017-Nov-18 14:01N 39°30' W 075°56'5 9.0
2017-Nov-18 13:30N 39°27' W 075°60'5 9.1
2017-Nov-18 13:00N 39°24' W 076°04'5 9.6
2017-Nov-18 12:29N 39°21' W 076°10'6 9.1
2017-Nov-18 11:47N 39°16' W 076°14'3 8.7
2017-Nov-18 11:29N 39°13' W 076°15'4 9.1
2017-Nov-18 11:00N 39°10' W 076°18'11 8.5
2017-Nov-18 09:44N 38°60' W 076°23'2 7.6
2017-Nov-18 09:25N 38°57' W 076°24'4 8.2
2017-Nov-18 08:53N 38°53' W 076°24'  
2017-Nov-12 13:43N 38°49' W 076°27'2 8.7
2017-Nov-12 13:30N 38°51' W 076°26'5 8.8
2017-Nov-12 12:56N 38°56' W 076°24'4 9.2
2017-Nov-12 12:30N 38°60' W 076°23'4 9.1
2017-Nov-12 12:00N 39°04' W 076°24'5 9.0
2017-Nov-12 11:30N 39°09' W 076°24'4 8.3
2017-Nov-12 11:00N 39°11' W 076°28'4 7.7
2017-Nov-12 10:30N 39°14' W 076°32'2 4.2
2017-Nov-12 10:00N 39°15' W 076°34'0 0.0
2017-Nov-12 09:30N 39°15' W 076°34'0 0.0
2017-Nov-12 09:00N 39°15' W 076°34'0 0.0
2017-Nov-12 08:30N 39°15' W 076°34'0 0.0
2017-Nov-12 08:00N 39°15' W 076°34'0 0.0
2017-Nov-12 07:30N 39°15' W 076°34'0 0.0
2017-Nov-12 07:00N 39°15' W 076°34'0 0.0
2017-Nov-12 06:30N 39°15' W 076°34'0 0.0
2017-Nov-12 06:00N 39°15' W 076°34'0 0.0
2017-Nov-12 05:30N 39°15' W 076°34'0 0.0
2017-Nov-12 05:00N 39°15' W 076°34'0 0.0
2017-Nov-12 04:30N 39°15' W 076°34'0 0.0
2017-Nov-12 04:00N 39°15' W 076°34'0 0.6
2017-Nov-12 03:31N 39°15' W 076°34'1 2.5
2017-Nov-12 03:00N 39°14' W 076°33'4 7.5
2017-Nov-12 02:30N 39°12' W 076°29'4 7.6
2017-Nov-12 02:00N 39°10' W 076°25'5 7.7
2017-Nov-12 01:24N 39°05' W 076°24'3 7.8
2017-Nov-12 01:00N 39°02' W 076°22'5 7.4
2017-Nov-12 00:21N 38°57' W 076°24'3 7.4
2017-Nov-12 00:00N 38°55' W 076°24'4 7.4
2017-Nov-11 23:30N 38°51' W 076°25'100 7.3
2017-Nov-11 09:49N 37°12' W 076°10'2 7.6
2017-Nov-11 09:30N 37°10' W 076°10'4 7.7
2017-Nov-11 09:00N 37°06' W 076°10'4 7.3
2017-Nov-11 08:28N 37°02' W 076°10'3 5.6
2017-Nov-11 08:00N 37°00' W 076°13'3 6.7
2017-Nov-11 07:30N 37°00' W 076°17'3 6.1
2017-Nov-11 07:00N 36°58' W 076°20'3 5.6
2017-Nov-11 06:30N 36°57' W 076°23'1 2.9
2017-Nov-11 06:01N 36°58' W 076°25'0 0.5
2017-Nov-11 05:29N 36°58' W 076°25'0 0.1
2017-Nov-11 04:59N 36°58' W 076°25'0 0.0
2017-Nov-11 04:29N 36°58' W 076°25'0 0.0
2017-Nov-11 03:59N 36°58' W 076°25'0 0.0
2017-Nov-11 03:29N 36°58' W 076°25'0 0.0
2017-Nov-11 02:56N 36°58' W 076°25'0 0.0
2017-Nov-11 02:29N 36°58' W 076°25'0 0.0
2017-Nov-11 01:59N 36°58' W 076°25'0 0.0
2017-Nov-11 01:29N 36°58' W 076°25'0 0.0
2017-Nov-11 00:59N 36°58' W 076°25'0 0.0
2017-Nov-11 00:29N 36°58' W 076°25'0 0.0
2017-Nov-10 23:59N 36°58' W 076°25'0 0.0
2017-Nov-10 23:29N 36°58' W 076°25'0 0.0
2017-Nov-10 22:11N 36°58' W 076°25'0 0.0
2017-Nov-10 21:59N 36°58' W 076°25'0 0.0
2017-Nov-10 21:29N 36°58' W 076°25'0 0.1
2017-Nov-10 21:00N 36°58' W 076°25'0 0.9
2017-Nov-10 20:30N 36°58' W 076°26'3 5.9
2017-Nov-10 20:00N 36°60' W 076°28'9 6.5
2017-Nov-10 18:39N 37°05' W 076°37'2 6.7
2017-Nov-10 18:24N 37°07' W 076°38'  
Track history (hours):
 
Tides and Currents Weather Stations Pressure Air Temp Water Temp Dewpoint Dewpoint Depression Visibility Wind Speed Wind Dir Waves Ship Positions

RoSS Sea

Owner: Kirby Inland Marine, LP, Houston, TX. More information available from US FCC via Universal Licensing System and Coast Guard Vessel Documentation Center.

Last reported at 2017-Nov-20 00:29 UTC. Time now 2017-Nov-22 13:10 UTC.
Position N 39°53' W 075°10'.

Length 30 m; draft 3.8 m.

Type: Towing. MMSI: 367334360.

Date/timePositionNaut miles runAvg speedWind from/ knotsBaromVisibWave heightAir tempDewpointWater temp
2017-Nov-20 00:29N 39°53' W 075°10'0 0.1
2017-Nov-19 23:59N 39°53' W 075°10'0 0.1
2017-Nov-19 23:29N 39°53' W 075°10'0 0.0
2017-Nov-19 22:59N 39°53' W 075°10'0 0.0
2017-Nov-19 22:29N 39°53' W 075°10'0 0.1
2017-Nov-19 21:59N 39°53' W 075°10'0 0.0
2017-Nov-19 21:29N 39°53' W 075°10'0 0.0
2017-Nov-19 20:59N 39°53' W 075°10'0 0.1
2017-Nov-19 20:29N 39°53' W 075°10'0 0.0
2017-Nov-19 19:59N 39°53' W 075°10'0 0.0
2017-Nov-19 19:29N 39°53' W 075°10'0 0.0
2017-Nov-19 18:59N 39°53' W 075°10'0 0.0
2017-Nov-19 18:29N 39°53' W 075°10'0 0.0
2017-Nov-19 17:59N 39°53' W 075°10'0 0.0
2017-Nov-19 17:29N 39°53' W 075°10'0 0.0
2017-Nov-19 16:59N 39°53' W 075°10'0 0.0
2017-Nov-19 16:29N 39°53' W 075°10'0 0.0
2017-Nov-19 15:59N 39°53' W 075°10'0 0.0
2017-Nov-19 15:29N 39°53' W 075°10'0 0.0
2017-Nov-19 14:59N 39°53' W 075°10'0 0.0
2017-Nov-19 14:29N 39°53' W 075°10'0 0.0
2017-Nov-19 13:59N 39°53' W 075°10'0 0.0
2017-Nov-19 13:29N 39°53' W 075°10'0 0.0
2017-Nov-19 12:59N 39°53' W 075°10'0 0.0
2017-Nov-19 12:29N 39°53' W 075°10'0 0.1
2017-Nov-19 11:59N 39°53' W 075°10'0 0.0
2017-Nov-19 11:29N 39°53' W 075°10'0 0.1
2017-Nov-19 10:59N 39°53' W 075°10'0 0.0
2017-Nov-19 10:29N 39°53' W 075°10'0 0.0
2017-Nov-19 09:59N 39°53' W 075°10'0 0.0
2017-Nov-19 09:29N 39°53' W 075°10'0 0.0
2017-Nov-19 08:59N 39°53' W 075°10'0 0.1
2017-Nov-19 08:29N 39°53' W 075°10'0 0.0
2017-Nov-19 07:59N 39°53' W 075°10'0 0.0
2017-Nov-19 07:29N 39°53' W 075°10'0 0.0
2017-Nov-19 06:59N 39°53' W 075°10'0 0.0
2017-Nov-19 06:29N 39°53' W 075°10'0 0.0
2017-Nov-19 05:59N 39°53' W 075°10'0 0.0
2017-Nov-19 05:29N 39°53' W 075°10'0 0.0
2017-Nov-19 04:59N 39°53' W 075°10'0 0.0
2017-Nov-19 04:29N 39°53' W 075°10'0 0.0
2017-Nov-19 03:59N 39°53' W 075°10'0 0.0
2017-Nov-19 03:29N 39°53' W 075°10'0 0.0
2017-Nov-19 02:59N 39°53' W 075°10'0 0.0
2017-Nov-19 02:29N 39°53' W 075°10'0 0.1
2017-Nov-19 01:59N 39°53' W 075°10'0 0.0
2017-Nov-19 01:29N 39°53' W 075°10'0 0.1
2017-Nov-19 00:59N 39°53' W 075°10'0 0.0
2017-Nov-19 00:29N 39°53' W 075°10'0 0.0
2017-Nov-18 23:59N 39°53' W 075°10'0 0.0
2017-Nov-18 23:29N 39°53' W 075°10'0 0.0
2017-Nov-18 22:59N 39°53' W 075°10'0 0.0
2017-Nov-18 22:29N 39°53' W 075°10'0 0.0
2017-Nov-18 21:59N 39°53' W 075°10'0 0.0
2017-Nov-18 21:29N 39°53' W 075°10'0 0.1
2017-Nov-18 21:00N 39°53' W 075°10'1 1.0
2017-Nov-18 20:30N 39°53' W 075°11'3 5.4
2017-Nov-18 20:00N 39°52' W 075°14'1 2.8
2017-Nov-18 19:30N 39°51' W 075°15'4 7.5
2017-Nov-18 19:00N 39°51' W 075°20'4 8.6
2017-Nov-18 18:30N 39°48' W 075°25'4 8.6
2017-Nov-18 18:00N 39°45' W 075°29'4 8.9
2017-Nov-18 17:30N 39°41' W 075°31'4 9.0
2017-Nov-18 17:01N 39°38' W 075°35'4 8.2
2017-Nov-18 16:30N 39°34' W 075°33'3 6.6
2017-Nov-18 16:01N 39°33' W 075°37'3 6.4
2017-Nov-18 15:31N 39°33' W 075°42'4 7.1
2017-Nov-18 15:00N 39°32' W 075°46'4 7.3
2017-Nov-18 14:31N 39°32' W 075°51'4 8.2
2017-Nov-18 14:01N 39°30' W 075°56'5 9.0
2017-Nov-18 13:30N 39°27' W 075°60'5 9.1
2017-Nov-18 13:00N 39°24' W 076°04'5 9.6
2017-Nov-18 12:29N 39°21' W 076°10'6 9.1
2017-Nov-18 11:47N 39°16' W 076°14'3 8.7
2017-Nov-18 11:29N 39°13' W 076°15'4 9.1
2017-Nov-18 11:00N 39°10' W 076°18'11 8.5
2017-Nov-18 09:44N 38°60' W 076°23'2 7.6
2017-Nov-18 09:25N 38°57' W 076°24'4 8.2
2017-Nov-18 08:53N 38°53' W 076°24'  
2017-Nov-12 13:43N 38°49' W 076°27'2 8.7
2017-Nov-12 13:30N 38°51' W 076°26'5 8.8
2017-Nov-12 12:56N 38°56' W 076°24'4 9.2
2017-Nov-12 12:30N 38°60' W 076°23'4 9.1
2017-Nov-12 12:00N 39°04' W 076°24'5 9.0
2017-Nov-12 11:30N 39°09' W 076°24'4 8.3
2017-Nov-12 11:00N 39°11' W 076°28'4 7.7
2017-Nov-12 10:30N 39°14' W 076°32'2 4.2
2017-Nov-12 10:00N 39°15' W 076°34'0 0.0
2017-Nov-12 09:30N 39°15' W 076°34'0 0.0
2017-Nov-12 09:00N 39°15' W 076°34'0 0.0
2017-Nov-12 08:30N 39°15' W 076°34'0 0.0
2017-Nov-12 08:00N 39°15' W 076°34'0 0.0
2017-Nov-12 07:30N 39°15' W 076°34'0 0.0
2017-Nov-12 07:00N 39°15' W 076°34'0 0.0
2017-Nov-12 06:30N 39°15' W 076°34'0 0.0
2017-Nov-12 06:00N 39°15' W 076°34'0 0.0
2017-Nov-12 05:30N 39°15' W 076°34'0 0.0
2017-Nov-12 05:00N 39°15' W 076°34'0 0.0
2017-Nov-12 04:30N 39°15' W 076°34'0 0.0
2017-Nov-12 04:00N 39°15' W 076°34'0 0.6
2017-Nov-12 03:31N 39°15' W 076°34'1 2.5
2017-Nov-12 03:00N 39°14' W 076°33'4 7.5
2017-Nov-12 02:30N 39°12' W 076°29'4 7.6
2017-Nov-12 02:00N 39°10' W 076°25'5 7.7
2017-Nov-12 01:24N 39°05' W 076°24'3 7.8
2017-Nov-12 01:00N 39°02' W 076°22'5 7.4
2017-Nov-12 00:21N 38°57' W 076°24'3 7.4
2017-Nov-12 00:00N 38°55' W 076°24'4 7.4
2017-Nov-11 23:30N 38°51' W 076°25'100 7.3
2017-Nov-11 09:49N 37°12' W 076°10'2 7.6
2017-Nov-11 09:30N 37°10' W 076°10'4 7.7
2017-Nov-11 09:00N 37°06' W 076°10'4 7.3
2017-Nov-11 08:28N 37°02' W 076°10'3 5.6
2017-Nov-11 08:00N 37°00' W 076°13'3 6.7
2017-Nov-11 07:30N 37°00' W 076°17'3 6.1
2017-Nov-11 07:00N 36°58' W 076°20'3 5.6
2017-Nov-11 06:30N 36°57' W 076°23'1 2.9
2017-Nov-11 06:01N 36°58' W 076°25'0 0.5
2017-Nov-11 05:29N 36°58' W 076°25'0 0.1
2017-Nov-11 04:59N 36°58' W 076°25'0 0.0
2017-Nov-11 04:29N 36°58' W 076°25'0 0.0
2017-Nov-11 03:59N 36°58' W 076°25'0 0.0
2017-Nov-11 03:29N 36°58' W 076°25'0 0.0
2017-Nov-11 02:56N 36°58' W 076°25'0 0.0
2017-Nov-11 02:29N 36°58' W 076°25'0 0.0
2017-Nov-11 01:59N 36°58' W 076°25'0 0.0
2017-Nov-11 01:29N 36°58' W 076°25'0 0.0
2017-Nov-11 00:59N 36°58' W 076°25'0 0.0
2017-Nov-11 00:29N 36°58' W 076°25'0 0.0
2017-Nov-10 23:59N 36°58' W 076°25'0 0.0
2017-Nov-10 23:29N 36°58' W 076°25'0 0.0
2017-Nov-10 22:11N 36°58' W 076°25'0 0.0
2017-Nov-10 21:59N 36°58' W 076°25'0 0.0
2017-Nov-10 21:29N 36°58' W 076°25'0 0.1
2017-Nov-10 21:00N 36°58' W 076°25'0 0.9
2017-Nov-10 20:30N 36°58' W 076°26'3 5.9
2017-Nov-10 20:00N 36°60' W 076°28'9 6.5
2017-Nov-10 18:39N 37°05' W 076°37'2 6.7
2017-Nov-10 18:24N 37°07' W 076°38'  

Dump ship's entire track history